Time;durP1;ratioP1;P1;durP2;ratioP2;P2;SDS_P1;SDS_P2;PMS_P1;PMS_P2;Temp;Humidity;BMP_temperature;BMP_pressure;BME280_temperature;BME280_humidity;BME280_pressure;Samples;Min_cycle;Max_cycle;Signal;HPM_P1;HPM_P2
2022/10/19 00:01:08;;;;;;;20.57;6.90;;;;;;;8.77;67.14;101284.98;1779112;80;20971;-89
2022/10/19 00:03:36;;;;;;;11.18;6.90;;;;;;;8.81;66.87;101286.55;1778986;80;20833;-87
2022/10/19 00:06:12;;;;;;;12.05;6.58;;;;;;;8.83;66.54;101282.11;1778850;80;21133;-88
2022/10/19 00:08:41;;;;;;;8.58;5.70;;;;;;;8.83;66.24;101276.88;1778498;80;21017;-88
2022/10/19 00:11:07;;;;;;;13.43;6.58;;;;;;;8.84;66.04;101273.34;1778841;80;20931;-88
2022/10/19 00:13:35;;;;;;;7.80;5.30;;;;;;;8.82;65.88;101269.47;1778512;80;20923;-88
2022/10/19 00:16:13;;;;;;;14.00;6.17;;;;;;;8.82;65.76;101268.63;1778678;80;21464;-88
2022/10/19 00:18:40;;;;;;;13.65;7.22;;;;;;;8.80;65.71;101264.76;1778666;80;21329;-88
2022/10/19 00:21:07;;;;;;;14.33;5.92;;;;;;;8.78;65.74;101260.08;1778514;80;21373;-88
2022/10/19 00:23:35;;;;;;;8.65;5.35;;;;;;;8.79;65.75;101259.15;1778571;80;20899;-87
2022/10/19 00:26:02;;;;;;;14.43;5.20;;;;;;;8.80;65.88;101257.37;1778587;80;20924;-88
2022/10/19 00:28:29;;;;;;;8.78;6.03;;;;;;;8.80;66.31;101253.45;1778732;80;20872;-88
2022/10/19 00:31:08;;;;;;;16.27;6.75;;;;;;;8.78;66.32;101256.16;1778733;80;21959;-88
2022/10/19 00:33:36;;;;;;;9.80;6.30;;;;;;;8.78;66.65;101248.74;1740204;80;20990;-87
2022/10/19 00:36:02;;;;;;;9.35;6.17;;;;;;;8.76;67.01;101241.42;1781359;80;20935;-88
2022/10/19 00:38:29;;;;;;;15.20;6.87;;;;;;;8.75;67.14;101233.20;1781374;80;20982;-85
2022/10/19 00:40:56;;;;;;;16.23;7.25;;;;;;;8.71;67.19;101224.62;1781641;80;20924;-85
2022/10/19 00:43:26;;;;;;;12.15;6.35;;;;;;;8.66;67.29;101213.05;1779888;80;21173;-88
2022/10/19 00:45:53;;;;;;;9.18;6.10;;;;;;;8.62;67.61;101221.94;1778605;80;20935;-87
2022/10/19 00:48:26;;;;;;;9.78;6.15;;;;;;;8.57;67.87;101219.14;1778739;80;20861;-88
2022/10/19 00:50:53;;;;;;;9.60;5.33;;;;;;;8.53;68.00;101218.87;1778700;80;21452;-86
2022/10/19 00:53:20;;;;;;;17.60;6.72;;;;;;;8.49;68.32;101215.09;1778521;80;21010;-87
2022/10/19 00:55:47;;;;;;;12.03;6.65;;;;;;;8.46;68.55;101215.66;1778469;80;21253;-85
2022/10/19 00:58:14;;;;;;;9.48;6.90;;;;;;;8.43;68.66;101217.95;1778691;80;20975;-87
2022/10/19 01:00:41;;;;;;;11.40;6.12;;;;;;;8.42;68.86;101216.70;1778678;80;20935;-87
2022/10/19 01:03:08;;;;;;;16.93;7.65;;;;;;;8.40;68.96;101211.95;1778665;80;20923;-87
2022/10/19 01:05:35;;;;;;;11.70;7.42;;;;;;;8.39;69.01;101213.72;1762934;79;20883;-89
2022/10/19 01:08:02;;;;;;;14.07;6.87;;;;;;;8.41;68.92;101215.02;1758156;80;21149;-88
2022/10/19 01:11:03;;;;;;;10.85;6.10;;;;;;;8.43;68.82;101207.49;1758163;80;20970;-87
2022/10/19 01:13:57;;;;;;;9.58;6.72;;;;;;;8.45;68.65;101208.28;1758345;81;20899;-88
2022/10/19 01:16:39;;;;;;;10.45;6.55;;;;;;;8.47;68.46;101209.50;1758547;80;20958;-87
2022/10/19 01:19:48;;;;;;;10.78;6.75;;;;;;;8.46;68.51;101200.82;1758527;80;21405;-86
2022/10/19 01:22:36;;;;;;;12.07;5.87;;;;;;;8.44;68.53;101202.64;1758676;80;21164;-87
2022/10/19 01:25:43;;;;;;;8.85;6.30;;;;;;;8.43;68.57;101192.28;1758761;80;20974;-88
2022/10/19 01:28:28;;;;;;;11.88;6.95;;;;;;;8.42;68.48;101203.63;1758318;80;20973;-88
2022/10/19 01:31:00;;;;;;;12.63;6.22;;;;;;;8.42;68.50;101199.70;1758501;80;20931;-88
2022/10/19 01:33:48;;;;;;;11.20;5.72;;;;;;;8.44;68.66;101192.66;1758392;81;21419;-87
2022/10/19 01:36:36;;;;;;;14.98;6.00;;;;;;;8.47;68.64;101196.44;1758571;80;21851;-87
2022/10/19 01:39:18;;;;;;;14.60;7.25;;;;;;;8.49;68.52;101193.30;1758446;80;20978;-88
2022/10/19 01:42:11;;;;;;;16.50;7.50;;;;;;;8.51;68.39;101184.94;1727124;80;20935;-87
2022/10/19 01:44:46;;;;;;;14.58;7.92;;;;;;;8.53;68.08;101177.05;1758322;80;20942;-88
2022/10/19 01:47:26;;;;;;;19.70;7.42;;;;;;;8.54;67.80;101178.73;1757980;81;20990;-88
2022/10/19 01:49:56;;;;;;;12.82;6.92;;;;;;;8.54;67.61;101176.98;1758434;80;21174;-88
2022/10/19 01:52:22;;;;;;;11.85;8.03;;;;;;;8.53;67.41;101173.13;1758402;80;21019;-87
2022/10/19 01:54:52;;;;;;;17.10;8.15;;;;;;;8.50;67.38;101172.34;1782013;80;20883;-87
2022/10/19 01:57:27;;;;;;;15.40;8.23;;;;;;;8.48;67.32;101163.70;1758539;80;20970;-89
2022/10/19 01:59:53;;;;;;;12.45;7.28;;;;;;;8.47;67.35;101160.72;1757770;80;20904;-87
2022/10/19 02:02:21;;;;;;;10.13;6.53;;;;;;;8.45;67.40;101161.70;1758362;80;21442;-86
2022/10/19 02:04:48;;;;;;;13.53;6.83;;;;;;;8.44;67.48;101155.59;1754221;81;20913;-86
2022/10/19 02:07:15;;;;;;;11.97;6.95;;;;;;;8.45;67.53;101160.39;1767116;80;20930;-87
2022/10/19 02:09:42;;;;;;;13.08;6.97;;;;;;;8.45;67.55;101146.02;1766418;81;20934;-87
2022/10/19 02:12:09;;;;;;;15.50;6.75;;;;;;;8.46;67.56;101151.63;1766218;80;20863;-86
2022/10/19 02:14:42;;;;;;;17.17;7.12;;;;;;;8.48;67.58;101151.10;1766247;81;21266;-87
2022/10/19 02:17:12;;;;;;;12.90;7.05;;;;;;;8.50;67.62;101142.28;1766250;80;20918;-87
2022/10/19 02:19:41;;;;;;;10.03;6.80;;;;;;;8.52;67.57;101139.61;1766219;81;20886;-85
2022/10/19 02:22:08;;;;;;;15.03;6.83;;;;;;;8.52;67.56;101138.30;1731892;81;20890;-87
2022/10/19 02:24:36;;;;;;;18.12;9.38;;;;;;;8.53;67.43;101137.37;1701853;83;20995;-88
2022/10/19 02:27:04;;;;;;;14.63;8.08;;;;;;;8.53;67.29;101133.45;1731220;82;22188;-87
2022/10/19 02:29:34;;;;;;;13.53;8.55;;;;;;;8.52;67.19;101140.08;1729988;81;20997;-88
2022/10/19 02:32:00;;;;;;;16.97;9.55;;;;;;;8.51;67.16;101131.36;1699187;83;20947;-86
2022/10/19 02:34:27;;;;;;;13.58;8.80;;;;;;;8.49;67.30;101134.48;1729310;81;20945;-87
2022/10/19 02:36:54;;;;;;;19.12;8.63;;;;;;;8.46;67.44;101126.33;1698872;84;20923;-88
2022/10/19 02:39:20;;;;;;;13.35;10.55;;;;;;;8.43;67.66;101130.86;1729523;82;21072;-88
2022/10/19 02:41:55;;;;;;;14.47;9.23;;;;;;;8.41;67.91;101122.23;1729344;82;20879;-87
2022/10/19 02:44:46;;;;;;;18.65;9.48;;;;;;;8.40;67.99;101122.66;1699133;83;20971;-86
2022/10/19 02:47:16;;;;;;;16.15;7.80;;;;;;;8.40;68.15;101120.05;1729408;81;20887;-87
2022/10/19 02:49:43;;;;;;;10.98;6.58;;;;;;;8.40;68.27;101115.25;1698855;84;21459;-86
2022/10/19 02:52:11;;;;;;;10.10;6.70;;;;;;;8.41;68.58;101115.23;1729996;82;21152;-88
2022/10/19 02:54:40;;;;;;;12.35;7.47;;;;;;;8.43;68.86;101102.95;1700124;84;20952;-87
2022/10/19 02:57:22;;;;;;;9.38;6.80;;;;;;;8.46;69.12;101100.66;1729807;82;20962;-87
2022/10/19 02:59:49;;;;;;;14.25;8.05;;;;;;;8.49;69.13;101096.59;1698748;84;20964;-87
2022/10/19 03:02:16;;;;;;;16.52;9.10;;;;;;;8.51;69.00;101089.53;1729571;83;21036;-88
2022/10/19 03:04:44;;;;;;;11.48;8.13;;;;;;;8.53;68.88;101081.17;1702757;83;21245;-87
2022/10/19 03:07:13;;;;;;;11.03;6.97;;;;;;;8.56;68.85;101072.34;1723831;83;21521;-87
2022/10/19 03:09:42;;;;;;;14.87;7.45;;;;;;;8.58;68.77;101074.42;1725223;83;21009;-88
2022/10/19 03:12:09;;;;;;;10.45;6.70;;;;;;;8.58;68.80;101072.69;1724664;83;21418;-87
2022/10/19 03:14:38;;;;;;;12.53;8.78;;;;;;;8.59;68.96;101065.69;1723563;83;20941;-87
2022/10/19 03:17:04;;;;;;;14.10;9.45;;;;;;;8.58;69.02;101071.37;1723745;83;21233;-87
2022/10/19 03:19:31;;;;;;;15.65;7.50;;;;;;;8.58;69.08;101066.16;1723350;83;20989;-88
2022/10/19 03:21:58;;;;;;;10.93;7.00;;;;;;;8.58;69.24;101062.23;1723449;83;20954;-88
2022/10/19 03:24:25;;;;;;;13.75;7.08;;;;;;;8.57;69.43;101056.59;1723459;82;20925;-87
2022/10/19 03:26:52;;;;;;;12.75;7.37;;;;;;;8.59;69.63;101057.84;1723574;83;20925;-87
2022/10/19 03:29:18;;;;;;;10.98;7.37;;;;;;;8.60;69.89;101050.37;1723503;83;21938;-85
2022/10/19 03:31:45;;;;;;;10.40;6.80;;;;;;;8.60;70.01;101057.75;1723364;83;21371;-88
2022/10/19 03:34:12;;;;;;;10.98;7.30;;;;;;;8.59;70.10;101057.84;1723369;83;21541;-88
2022/10/19 03:36:40;;;;;;;9.95;6.72;;;;;;;8.58;70.34;101050.90;1723455;83;21008;-88
2022/10/19 03:39:12;;;;;;;12.35;6.55;;;;;;;8.57;70.51;101042.22;1723627;83;20902;-88
2022/10/19 03:41:39;;;;;;;10.50;7.05;;;;;;;8.58;70.55;101038.70;1699777;83;21140;-87
2022/10/19 03:44:06;;;;;;;10.68;6.97;;;;;;;8.61;70.60;101033.79;1723326;83;20850;-88
2022/10/19 03:46:32;;;;;;;14.85;8.30;;;;;;;8.60;70.54;101030.77;1723472;83;20996;-88
2022/10/19 03:48:59;;;;;;;11.78;7.60;;;;;;;8.59;70.76;101030.39;1723858;83;20882;-88
2022/10/19 03:51:28;;;;;;;9.48;6.83;;;;;;;8.60;70.97;101027.69;1723793;83;20949;-88
2022/10/19 03:53:58;;;;;;;12.93;7.97;;;;;;;8.62;70.88;101021.09;1725470;83;21176;-88
2022/10/19 03:56:26;;;;;;;11.83;8.60;;;;;;;8.61;70.98;101016.33;1725525;83;20932;-88
2022/10/19 03:58:54;;;;;;;15.23;8.65;;;;;;;8.60;70.87;101002.86;1725892;83;20885;-85
2022/10/19 04:01:37;;;;;;;12.50;7.92;;;;;;;8.57;70.92;101004.31;1725743;83;21504;-86
2022/10/19 04:04:06;;;;;;;10.70;7.25;;;;;;;8.54;71.00;101002.28;1723707;83;21051;-87
2022/10/19 04:06:36;;;;;;;9.93;6.85;;;;;;;8.50;71.13;100993.29;1723644;83;21250;-87
2022/10/19 04:09:05;;;;;;;15.58;8.05;;;;;;;8.48;71.26;100992.97;1723464;83;20945;-88
2022/10/19 04:11:33;;;;;;;16.67;7.28;;;;;;;8.47;71.47;100984.29;1723411;83;20961;-88
2022/10/19 04:14:00;;;;;;;13.53;7.95;;;;;;;8.46;71.61;100987.80;1723417;83;20960;-88
2022/10/19 04:16:28;;;;;;;11.85;8.18;;;;;;;8.44;71.66;100984.88;1723541;83;20901;-88
2022/10/19 04:18:55;;;;;;;12.50;6.50;;;;;;;8.43;72.13;100976.66;1723398;83;21139;-87
2022/10/19 04:21:33;;;;;;;14.68;8.00;;;;;;;8.45;72.42;100980.06;1723667;83;20953;-87
2022/10/19 04:24:08;;;;;;;15.18;7.83;;;;;;;8.47;72.64;100973.84;1723733;83;20972;-88
2022/10/19 04:26:43;;;;;;;12.18;7.42;;;;;;;8.48;72.64;100968.14;1699213;83;26447;-88
2022/10/19 04:29:09;;;;;;;10.50;7.53;;;;;;;8.49;72.66;100968.09;1722733;83;21762;-89
2022/10/19 04:31:37;;;;;;;10.98;7.08;;;;;;;8.49;72.84;100965.91;1723661;83;21102;-89
2022/10/19 04:34:03;;;;;;;12.18;6.78;;;;;;;8.49;72.95;100957.62;1723587;83;21489;-90
2022/10/19 04:36:31;;;;;;;10.63;7.35;;;;;;;8.51;73.03;100960.15;1723479;83;21017;-87
2022/10/19 04:38:58;;;;;;;12.20;8.58;;;;;;;8.52;73.11;100957.10;1723453;83;20885;-89
2022/10/19 04:41:24;;;;;;;10.50;7.12;;;;;;;8.54;73.38;100956.55;1723448;83;20996;-87
2022/10/19 04:43:57;;;;;;;11.97;7.03;;;;;;;8.58;73.46;100948.95;1723514;83;21136;-88
2022/10/19 04:46:24;;;;;;;13.62;7.33;;;;;;;8.63;73.51;100940.45;1723531;83;21000;-87
2022/10/19 04:48:51;;;;;;;10.15;5.45;;;;;;;8.66;73.74;100935.91;1723495;83;21063;-86
2022/10/19 04:51:18;;;;;;;12.00;7.30;;;;;;;8.70;74.08;100926.17;1723983;83;20944;-89
2022/10/19 04:53:46;;;;;;;7.00;5.40;;;;;;;8.74;74.33;100936.88;1723467;83;20909;-88
2022/10/19 04:56:19;;;;;;;11.05;6.70;;;;;;;8.80;74.49;100927.41;1723504;83;21177;-87
2022/10/19 04:58:46;;;;;;;13.20;7.33;;;;;;;8.86;74.69;100917.97;1723744;83;20949;-88
2022/10/19 05:01:15;;;;;;;10.90;6.97;;;;;;;8.94;74.76;100917.62;1723455;83;21008;-88
2022/10/19 05:03:42;;;;;;;10.70;6.20;;;;;;;9.04;74.79;100913.61;1723323;83;21406;-89
2022/10/19 05:06:09;;;;;;;11.18;6.40;;;;;;;9.12;74.76;100911.48;1723436;83;21319;-89
2022/10/19 05:08:35;;;;;;;8.95;6.60;;;;;;;9.22;74.74;100907.09;1723589;83;21861;-88
2022/10/19 05:11:07;;;;;;;13.15;7.00;;;;;;;9.28;74.80;100910.25;1723641;83;21041;-89
2022/10/19 05:13:35;;;;;;;10.98;7.05;;;;;;;9.38;74.68;100909.79;1725060;83;20890;-88
2022/10/19 05:16:05;;;;;;;14.93;8.73;;;;;;;9.47;74.54;100887.94;1723994;83;20984;-91
2022/10/19 05:18:33;;;;;;;16.32;8.18;;;;;;;9.56;74.55;100901.02;1723739;83;21327;-88
2022/10/19 05:21:07;;;;;;;13.18;7.95;;;;;;;9.66;74.39;100889.59;1723960;83;21428;-87
2022/10/19 05:23:34;;;;;;;11.45;6.58;;;;;;;9.75;74.33;100886.03;1723127;83;20961;-89
2022/10/19 05:26:11;;;;;;;12.25;6.53;;;;;;;9.99;74.35;100891.38;1723600;83;20960;-87
2022/10/19 05:28:37;;;;;;;10.00;6.78;;;;;;;10.31;74.06;100894.91;1723404;83;20882;-88
2022/10/19 05:31:11;;;;;;;9.83;6.58;;;;;;;10.68;73.42;100892.89;1723584;83;20945;-88
2022/10/19 05:33:39;;;;;;;9.13;5.97;;;;;;;11.11;72.79;100881.25;1723640;83;21248;-88
2022/10/19 05:36:33;;;;;;;10.35;6.45;;;;;;;11.72;71.80;100880.25;1723437;83;20890;-88
2022/10/19 05:39:04;;;;;;;26.17;19.20;;;;;;;12.46;70.19;100879.64;1724108;83;20937;-90
2022/10/19 05:41:31;;;;;;;12.85;9.30;;;;;;;13.47;67.22;100880.05;1723801;83;20933;-90
2022/10/19 05:43:59;;;;;;;14.25;10.88;;;;;;;14.41;64.64;100882.28;1723768;83;20937;-91
2022/10/19 05:46:27;;;;;;;15.78;10.00;;;;;;;15.99;58.74;100860.34;1724112;83;21237;-91
2022/10/19 05:48:55;;;;;;;10.58;5.78;;;;;;;15.99;58.74;100860.34;1724016;83;20944;-90
2022/10/19 05:51:23;;;;;;;8.35;6.03;;;;;;;16.53;56.66;100862.16;1724426;83;20996;-92
2022/10/19 05:53:49;;;;;;;7.83;5.60;;;;;;;17.10;55.00;100863.31;1724930;83;20901;-89
2022/10/19 05:56:20;;;;;;;8.18;5.05;;;;;;;17.64;53.38;100852.96;1724692;83;20913;-88
2022/10/19 05:58:54;;;;;;;7.70;5.10;;;;;;;18.23;52.30;100849.59;1724990;83;23855;-88
2022/10/19 06:01:21;;;;;;;6.47;5.28;;;;;;;18.81;50.99;100855.98;1725079;83;20985;-91
2022/10/19 06:03:53;;;;;;;8.63;5.60;;;;;;;19.19;49.49;100848.96;1724868;83;20913;-91
2022/10/19 06:06:22;;;;;;;8.13;5.25;;;;;;;19.53;48.43;100852.45;1724148;82;20917;-93
2022/10/19 06:08:50;;;;;;;7.55;5.70;;;;;;;19.81;47.32;100842.70;1716086;83;21403;-92
2022/10/19 06:11:26;;;;;;;5.60;4.58;;;;;;;20.09;46.45;100843.55;1779947;80;20899;-90
2022/10/19 06:13:57;;;;;;;6.40;4.47;;;;;;;20.46;45.44;100843.47;1779870;80;20970;-92
2022/10/19 06:16:26;;;;;;;5.92;4.83;;;;;;;20.92;44.33;100840.77;1780110;80;20900;-92
2022/10/19 06:18:53;;;;;;;7.92;4.45;;;;;;;21.23;43.65;100845.17;1780149;80;20955;-94
2022/10/19 06:21:22;;;;;;;6.87;4.60;;;;;;;21.15;42.84;100836.27;1780567;80;21357;-91
2022/10/19 06:23:51;;;;;;;8.53;3.95;;;;;;;20.82;42.93;100836.00;1780514;80;21243;-90
2022/10/19 06:26:17;;;;;;;7.30;4.22;;;;;;;20.33;43.44;100821.69;1780089;80;20888;-91
2022/10/19 06:28:45;;;;;;;8.78;4.70;;;;;;;19.84;44.28;100821.95;1780432;80;20896;-93
2022/10/19 06:31:13;;;;;;;10.45;8.13;;;;;;;19.36;45.12;100817.62;1780679;80;20954;-90
2022/10/19 06:33:43;;;;;;;7.75;4.37;;;;;;;18.89;45.91;100814.91;1758486;80;21021;-90
2022/10/19 06:36:15;;;;;;;8.33;6.17;;;;;;;18.44;46.71;100814.12;1780570;80;21400;-92
2022/10/19 06:38:44;;;;;;;8.10;5.15;;;;;;;18.05;47.62;100808.72;1780342;80;20975;-92
2022/10/19 06:41:11;;;;;;;11.78;9.88;;;;;;;17.70;48.48;100810.49;1780060;80;20976;-90
2022/10/19 06:43:39;;;;;;;9.73;5.53;;;;;;;17.38;49.19;100801.67;1780657;80;20891;-87
2022/10/19 06:46:09;;;;;;;6.17;4.95;;;;;;;17.07;50.04;100802.61;1781021;80;20903;-89
2022/10/19 06:48:36;;;;;;;8.33;5.15;;;;;;;16.79;50.80;100794.31;1779663;80;21137;-92
2022/10/19 06:51:06;;;;;;;10.55;5.53;;;;;;;16.55;51.52;100799.83;1779455;80;20974;-89
2022/10/19 06:53:34;;;;;;;10.68;7.50;;;;;;;16.30;52.18;100788.60;1779454;80;20904;-92
2022/10/19 06:56:04;;;;;;;13.10;9.88;;;;;;;16.06;52.95;100783.48;1779771;80;20950;-92
2022/10/19 06:58:36;;;;;;;121.87;84.47;;;;;;;15.85;53.68;100781.23;1759645;80;21439;-91
2022/10/19 07:01:06;;;;;;;26.15;18.87;;;;;;;15.63;54.40;100772.80;1780058;80;21808;-92
2022/10/19 07:03:43;;;;;;;19.30;15.28;;;;;;;15.47;55.21;100765.23;1781410;80;21058;-93
2022/10/19 07:06:13;;;;;;;12.45;6.62;;;;;;;15.27;55.91;100750.48;1773792;80;21409;-90
2022/10/19 07:08:40;;;;;;;8.58;4.28;;;;;;;14.88;57.12;100741.17;1768136;79;21389;-90
2022/10/19 07:11:15;;;;;;;12.18;8.10;;;;;;;14.78;58.04;100738.37;1780493;80;20904;-90
2022/10/19 07:13:41;;;;;;;8.70;5.28;;;;;;;14.78;58.04;100738.37;1781492;80;21372;-90
2022/10/19 07:16:12;;;;;;;8.58;5.67;;;;;;;14.60;59.12;100729.20;1781331;79;20852;-91
2022/10/19 07:18:41;;;;;;;8.03;4.47;;;;;;;14.60;59.12;100729.20;1781700;79;20953;-91
2022/10/19 07:21:11;;;;;;;8.58;5.15;;;;;;;14.55;59.53;100724.28;1781476;80;20896;-90
2022/10/19 07:23:40;;;;;;;4.90;3.42;;;;;;;14.50;59.65;100718.48;1780652;80;20911;-92
2022/10/19 07:26:16;;;;;;;13.30;7.85;;;;;;;14.43;60.95;100708.03;1781435;80;21302;-91
2022/10/19 07:28:45;;;;;;;6.42;4.30;;;;;;;14.43;60.95;100708.03;1781147;80;21444;-91
2022/10/19 07:31:19;;;;;;;5.22;3.87;;;;;;;14.42;60.97;100698.41;1781779;80;20963;-87
2022/10/19 07:33:48;;;;;;;4.28;3.47;;;;;;;14.40;61.23;100689.28;1781790;80;20887;-90
2022/10/19 07:36:15;;;;;;;6.50;4.15;;;;;;;14.49;61.34;100686.44;1780387;80;20935;-90
2022/10/19 07:38:42;;;;;;;7.92;6.28;;;;;;;14.49;61.34;100686.44;1780270;80;22303;-89
2022/10/19 07:41:13;;;;;;;6.45;4.30;;;;;;;14.57;61.25;100671.39;1776291;80;20927;-91
2022/10/19 07:43:41;;;;;;;5.75;4.85;;;;;;;14.69;61.21;100669.12;1779371;80;20915;-91
2022/10/19 07:46:12;;;;;;;38.08;29.70;;;;;;;15.01;61.08;100665.81;1779563;80;20955;-90
2022/10/19 07:48:39;;;;;;;17.30;11.97;;;;;;;15.64;60.29;100666.11;1779818;80;20888;-92
2022/10/19 07:51:07;;;;;;;39.20;28.77;;;;;;;16.50;58.55;100654.61;1780010;80;21095;-91
2022/10/19 07:53:35;;;;;;;12.98;10.03;;;;;;;17.37;55.84;100654.69;1780186;80;21345;-91
2022/10/19 07:56:05;;;;;;;16.87;11.03;;;;;;;18.20;53.57;100648.09;1780506;80;20974;-93
2022/10/19 07:58:35;;;;;;;7.42;5.53;;;;;;;19.04;50.66;100639.89;1750570;80;20948;-91
2022/10/19 08:01:10;;;;;;;18.48;15.13;;;;;;;19.90;49.08;100643.55;1780881;80;20994;-94
2022/10/19 08:03:37;;;;;;;;;;;;;;;20.78;47.00;100634.72;1783631;80;21384;-93
2022/10/19 08:06:08;;;;;;;11.48;9.70;;;;;;;21.59;44.72;100624.91;1780635;80;20108;-94
2022/10/19 08:08:35;;;;;;;11.75;7.20;;;;;;;22.30;42.32;100622.64;1780992;80;20856;-92
2022/10/19 08:11:15;;;;;;;13.35;5.08;;;;;;;22.91;40.28;100625.16;1780793;80;20942;-91
2022/10/19 08:13:44;;;;;;;9.40;5.55;;;;;;;23.46;38.22;100609.23;1781123;80;20943;-89
2022/10/19 08:19:07;;;;;;;8.63;5.90;;;;;;;24.70;35.85;100608.06;1888869;75;22536;-93
2022/10/19 08:21:37;;;;;;;8.58;5.45;;;;;;;25.22;35.09;100603.07;1863024;77;20914;-93
2022/10/19 08:24:07;;;;;;;6.78;4.78;;;;;;;25.82;34.11;100602.36;1862853;77;21292;-93
2022/10/19 08:26:39;;;;;;;4.58;3.40;;;;;;;26.13;32.61;100587.77;1862545;77;21006;-91
2022/10/19 08:29:12;;;;;;;5.30;4.40;;;;;;;26.33;31.45;100579.02;1861946;76;21368;-91
2022/10/19 08:31:41;;;;;;;6.85;3.00;;;;;;;26.57;30.93;100569.66;1862784;77;20884;-93
2022/10/19 08:34:09;;;;;;;3.40;2.65;;;;;;;26.71;28.86;100555.27;1862589;77;20921;-92
2022/10/19 08:36:37;;;;;;;6.35;3.08;;;;;;;26.64;29.32;100562.48;1859472;76;21237;-93
2022/10/19 08:39:08;;;;;;;3.22;2.85;;;;;;;26.77;28.83;100563.89;1862221;77;20907;-91
2022/10/19 08:42:04;;;;;;;5.42;3.27;;;;;;;26.86;28.64;100568.06;1862091;76;20898;-91
2022/10/19 08:44:48;;;;;;;7.53;2.65;;;;;;;26.82;28.25;100561.95;1862211;77;20950;-90
2022/10/19 08:47:42;;;;;;;6.10;2.20;;;;;;;26.87;28.34;100567.02;1862684;77;20871;-91
2022/10/19 08:50:31;;;;;;;12.35;9.78;;;;;;;26.76;27.53;100551.45;1862950;77;21123;-91
2022/10/19 08:53:05;;;;;;;7.65;6.20;;;;;;;26.66;27.65;100551.02;1863034;77;21447;-93
2022/10/19 08:56:03;;;;;;;11.33;9.50;;;;;;;26.62;27.81;100564.02;1863992;77;20875;-92
2022/10/19 08:58:55;;;;;;;10.53;9.23;;;;;;;26.64;27.45;100567.86;1864502;77;20962;-94
2022/10/19 09:01:54;;;;;;;3.70;3.40;;;;;;;26.52;27.48;100566.19;1864928;77;20895;-92
2022/10/19 09:04:41;;;;;;;2.02;1.80;;;;;;;26.45;27.56;100570.19;1832842;77;21202;-91
2022/10/19 09:07:21;;;;;;;5.20;3.35;;;;;;;26.32;27.73;100580.86;1863941;76;20973;-94
2022/10/19 09:12:58;;;;;;;5.62;2.47;;;;;;;26.21;27.98;100579.56;1845251;77;23234;-94
2022/10/19 09:15:45;;;;;;;7.53;3.02;;;;;;;26.21;28.10;100574.19;1727133;82;20887;-91
2022/10/19 09:18:30;;;;;;;3.70;2.72;;;;;;;26.40;27.85;100567.27;1727131;82;22219;-91
2022/10/19 09:21:12;;;;;;;3.42;2.67;;;;;;;26.63;27.99;100563.49;1727614;81;21483;-92
2022/10/19 09:23:46;;;;;;;10.48;9.53;;;;;;;26.75;27.89;100563.78;1727821;82;20956;-91
2022/10/19 09:26:16;;;;;;;11.97;8.65;;;;;;;26.76;28.19;100561.39;1727262;81;20880;-91
2022/10/19 09:28:48;;;;;;;11.25;8.85;;;;;;;26.74;28.36;100552.69;1727242;82;20923;-92
2022/10/19 09:31:37;;;;;;;6.92;3.47;;;;;;;26.73;28.51;100545.14;1726921;82;21817;-91
2022/10/19 09:34:25;;;;;;;9.53;4.87;;;;;;;26.76;28.53;100550.11;1727138;83;20867;-92
2022/10/19 09:36:56;;;;;;;7.72;4.08;;;;;;;26.97;28.60;100537.55;1702952;82;20987;-93
2022/10/19 09:39:28;;;;;;;4.78;2.42;;;;;;;27.22;28.51;100534.67;1702715;83;21448;-92
2022/10/19 09:42:29;;;;;;;7.08;4.15;;;;;;;27.29;28.71;100540.08;1726971;82;20946;-93
2022/10/19 09:44:57;;;;;;;5.30;3.22;;;;;;;27.23;28.88;100530.93;1726696;83;21158;-93
2022/10/19 09:47:37;;;;;;;3.60;2.62;;;;;;;27.25;29.26;100524.83;1726560;81;21035;-91
2022/10/19 09:50:19;;;;;;;11.93;10.72;;;;;;;27.42;29.36;100526.62;1719645;80;20949;-92
2022/10/19 09:52:55;;;;;;;30.03;25.90;;;;;;;27.60;29.33;100525.20;1754102;81;20921;-90
2022/10/19 09:55:28;;;;;;;19.87;13.05;;;;;;;27.83;29.20;100517.52;1752090;81;20877;-90
2022/10/19 09:58:16;;;;;;;8.38;5.47;;;;;;;28.02;28.80;100514.53;1722980;81;21147;-92
2022/10/19 10:00:53;;;;;;;10.60;7.10;;;;;;;28.06;28.33;100520.35;1745023;81;20886;-91
2022/10/19 10:03:39;;;;;;;5.78;4.92;;;;;;;28.00;28.40;100516.61;1744588;81;21008;-91
2022/10/19 10:06:11;;;;;;;5.58;4.75;;;;;;;28.01;28.46;100515.56;1744922;80;20965;-90
2022/10/19 10:08:49;;;;;;;6.15;5.03;;;;;;;28.08;28.55;100508.80;1740525;81;20930;-93
2022/10/19 10:11:37;;;;;;;7.78;6.97;;;;;;;28.10;28.60;100509.43;1744934;80;20921;-93
2022/10/19 10:14:24;;;;;;;7.40;4.60;;;;;;;28.22;28.62;100501.55;1718105;82;21347;-91
2022/10/19 10:17:08;;;;;;;7.15;4.62;;;;;;;28.25;28.62;100492.48;1744553;81;20941;-91
2022/10/19 10:19:36;;;;;;;;;;;;;;;28.26;28.86;100494.16;1718175;82;20909;-92
2022/10/19 10:22:03;;;;;;;23.92;21.68;;;;;;;28.45;28.92;100495.13;1744947;81;20100;-91
2022/10/19 10:24:32;;;;;;;13.53;12.13;;;;;;;28.55;28.67;100490.68;1745070;81;21206;-92
2022/10/19 10:27:03;;;;;;;9.85;8.85;;;;;;;28.68;28.66;100489.77;1757509;80;20960;-93
2022/10/19 10:29:38;;;;;;;14.43;8.95;;;;;;;28.67;28.28;100487.60;1780214;79;20937;-92
2022/10/19 10:32:11;;;;;;;10.65;5.40;;;;;;;28.61;28.39;100481.70;1785381;79;20917;-91
2022/10/19 10:34:47;;;;;;;10.63;6.33;;;;;;;28.60;28.45;100467.92;1785682;79;20987;-92
2022/10/19 10:37:26;;;;;;;18.30;9.95;;;;;;;28.57;28.32;100468.86;1782734;79;21167;-92
2022/10/19 10:39:54;;;;;;;13.80;11.30;;;;;;;28.49;28.13;100459.16;1781974;79;20921;-92
2022/10/19 10:42:31;;;;;;;13.08;7.97;;;;;;;28.29;28.33;100452.45;1752507;81;20870;-91
2022/10/19 10:45:00;;;;;;;25.17;22.32;;;;;;;27.98;28.36;100452.64;1740855;81;20937;-92
2022/10/19 10:47:28;;;;;;;14.98;10.35;;;;;;;27.48;28.79;100437.45;1716088;82;20890;-91
2022/10/19 10:50:04;;;;;;;7.40;6.58;;;;;;;26.70;29.61;100437.91;1744541;81;21231;-92
2022/10/19 10:52:31;;;;;;;12.40;6.97;;;;;;;25.87;30.76;100427.13;1743827;81;21052;-91
2022/10/19 10:55:12;;;;;;;10.78;6.53;;;;;;;25.35;31.80;100435.12;1744655;81;20922;-91
2022/10/19 10:57:44;;;;;;;7.80;6.35;;;;;;;24.92;32.45;100431.91;1744278;81;20953;-91
2022/10/19 11:00:17;;;;;;;8.88;5.55;;;;;;;24.58;33.10;100421.82;1744449;80;20869;-91
2022/10/19 11:02:59;;;;;;;8.28;5.33;;;;;;;24.28;33.69;100410.28;1743787;81;21474;-93
2022/10/19 11:05:40;;;;;;;8.68;5.47;;;;;;;23.97;34.20;100411.34;1743838;81;21032;-91
2022/10/19 11:08:15;;;;;;;10.90;5.60;;;;;;;23.76;34.80;100410.71;1743971;81;21536;-90
2022/10/19 11:11:05;;;;;;;14.20;6.00;;;;;;;23.56;35.26;100407.70;1744382;81;20938;-93
2022/10/19 11:13:49;;;;;;;8.38;5.50;;;;;;;23.31;35.55;100408.44;1747492;81;21445;-91
2022/10/19 11:16:39;;;;;;;13.08;6.80;;;;;;;23.05;35.87;100392.25;1747464;81;21159;-89
2022/10/19 11:19:32;;;;;;;11.00;6.55;;;;;;;22.73;36.20;100381.27;1746952;81;21121;-90
2022/10/19 11:22:29;;;;;;;9.25;6.45;;;;;;;22.40;37.08;100396.66;1747765;81;20921;-90
2022/10/19 11:25:16;;;;;;;11.88;6.85;;;;;;;22.10;37.38;100399.10;1748735;81;20965;-91
2022/10/19 11:27:55;;;;;;;11.88;7.35;;;;;;;21.85;38.20;100387.14;1747455;81;20894;-91
2022/10/19 11:30:23;;;;;;;10.35;6.85;;;;;;;21.65;39.03;100394.69;1746239;81;21225;-91
2022/10/19 11:33:15;;;;;;;8.30;5.80;;;;;;;21.48;39.54;100393.91;1719365;81;20972;-92
2022/10/19 11:35:53;;;;;;;9.45;6.62;;;;;;;21.35;39.63;100385.55;1744774;81;26264;-91
2022/10/19 11:39:00;;;;;;;10.43;7.17;;;;;;;21.17;39.65;100391.05;1746092;81;20905;-91
2022/10/19 11:42:01;;;;;;;36.70;27.40;;;;;;;21.05;39.99;100391.86;1742065;82;20992;-90
2022/10/19 11:44:39;;;;;;;22.70;14.93;;;;;;;20.96;40.03;100384.03;1711215;81;21147;-88
2022/10/19 11:47:36;;;;;;;75.72;57.58;;;;;;;20.86;40.06;100384.20;1747183;81;20949;-90
2022/10/19 11:50:31;;;;;;;51.55;38.92;;;;;;;20.77;40.29;100380.70;1677641;84;20914;-91
2022/10/19 11:53:12;;;;;;;61.80;50.48;;;;;;;20.72;40.29;100383.02;1683333;83;20991;-90
2022/10/19 11:56:14;;;;;;;20.90;16.40;;;;;;;20.66;40.51;100374.34;1684125;84;20925;-90
2022/10/19 11:59:30;;;;;;;26.90;20.92;;;;;;;20.59;40.58;100374.67;1683069;83;21717;-91